createdAt,value
2019-02-17T00:01:35.391Z,4.10
2019-02-17T00:04:08.313Z,4.10
2019-02-17T00:06:39.295Z,4.00
2019-02-17T00:09:13.277Z,4.00
2019-02-17T00:11:44.293Z,3.90
2019-02-17T00:14:15.326Z,3.90
2019-02-17T00:16:47.042Z,3.90
2019-02-17T00:19:17.900Z,3.80
2019-02-17T00:21:48.863Z,3.70
2019-02-17T00:24:19.925Z,3.70
2019-02-17T00:26:51.442Z,3.60
2019-02-17T00:29:22.113Z,3.60
2019-02-17T00:31:53.193Z,3.60
2019-02-17T00:34:23.814Z,3.50
2019-02-17T00:36:55.061Z,3.40
2019-02-17T00:39:25.884Z,3.40
2019-02-17T00:41:56.744Z,3.30
2019-02-17T00:44:27.465Z,3.30
2019-02-17T00:46:58.981Z,3.30
2019-02-17T00:49:29.675Z,3.30
2019-02-17T00:52:00.478Z,3.20
2019-02-17T00:54:31.340Z,3.30
2019-02-17T00:57:02.477Z,3.20
2019-02-17T00:59:33.280Z,3.20
2019-02-17T01:02:04.354Z,3.20
2019-02-17T01:04:36.902Z,3.20
2019-02-17T01:07:08.903Z,3.10
2019-02-17T01:09:39.709Z,3.20
2019-02-17T01:12:10.706Z,3.20
2019-02-17T01:14:41.699Z,3.20
2019-02-17T01:17:12.915Z,3.30
2019-02-17T01:19:44.105Z,3.30
2019-02-17T01:22:15.063Z,3.20
2019-02-17T01:24:45.829Z,3.20
2019-02-17T01:27:16.945Z,3.10
2019-02-17T01:29:47.665Z,3.10
2019-02-17T01:32:18.389Z,2.90
2019-02-17T01:34:52.243Z,2.80
2019-02-17T01:37:22.839Z,2.80
2019-02-17T01:39:56.911Z,2.70
2019-02-17T01:42:27.860Z,2.70
2019-02-17T01:44:58.479Z,2.70
2019-02-17T01:47:30.411Z,2.80
2019-02-17T01:50:01.923Z,2.80
2019-02-17T01:52:34.155Z,2.80
2019-02-17T01:55:06.240Z,2.80
2019-02-17T01:57:37.436Z,2.80
2019-02-17T02:00:10.191Z,2.80
2019-02-17T02:02:41.195Z,2.80
2019-02-17T02:05:12.733Z,2.80
2019-02-17T02:07:48.220Z,2.80
2019-02-17T02:10:19.101Z,2.80
2019-02-17T02:12:50.087Z,2.70
2019-02-17T02:15:20.870Z,2.70
2019-02-17T02:17:51.540Z,2.60
2019-02-17T02:20:22.522Z,2.50
2019-02-17T02:22:53.738Z,2.40
2019-02-17T02:25:24.867Z,2.40
2019-02-17T02:27:56.028Z,2.40
2019-02-17T02:30:27.329Z,2.40
2019-02-17T02:33:00.027Z,2.40
2019-02-17T02:35:30.741Z,2.40
2019-02-17T02:38:01.581Z,2.40
2019-02-17T02:40:32.347Z,2.30
2019-02-17T02:43:03.927Z,2.20
2019-02-17T02:45:35.383Z,2.30
2019-02-17T02:48:06.617Z,2.20
2019-02-17T02:50:38.620Z,2.20
2019-02-17T02:53:11.105Z,2.20
2019-02-17T02:55:42.210Z,2.20
2019-02-17T02:58:13.640Z,2.30
2019-02-17T03:00:44.828Z,2.30
2019-02-17T03:03:16.154Z,2.40
2019-02-17T03:06:09.686Z,2.30
2019-02-17T03:08:40.497Z,2.30
2019-02-17T03:11:12.056Z,2.30
2019-02-17T03:13:43.242Z,2.30
2019-02-17T03:16:14.801Z,2.30
2019-02-17T03:18:46.102Z,2.20
2019-02-17T03:21:18.145Z,2.20
2019-02-17T03:23:49.518Z,2.20
2019-02-17T03:26:20.515Z,2.10
2019-02-17T03:28:52.416Z,2.20
2019-02-17T03:31:23.473Z,2.10
2019-02-17T03:33:55.063Z,2.00
2019-02-17T03:36:28.166Z,1.90
2019-02-17T03:38:59.700Z,1.90
2019-02-17T03:41:31.280Z,2.00
2019-02-17T03:44:02.934Z,2.00
2019-02-17T03:46:33.740Z,2.00
2019-02-17T03:49:05.100Z,2.00
2019-02-17T03:51:36.698Z,2.00
2019-02-17T03:54:07.631Z,2.00
2019-02-17T03:56:38.784Z,2.00
2019-02-17T03:59:10.059Z,1.80
2019-02-17T04:01:41.074Z,1.90
2019-02-17T04:04:12.035Z,1.90
2019-02-17T04:06:43.088Z,1.90
2019-02-17T04:09:13.998Z,1.80
2019-02-17T04:11:44.687Z,1.80
2019-02-17T04:14:15.759Z,1.70
2019-02-17T04:16:46.511Z,1.70
2019-02-17T04:19:17.258Z,1.70
2019-02-17T04:21:49.219Z,1.70
2019-02-17T04:24:19.843Z,1.70
2019-02-17T04:26:51.169Z,1.70
2019-02-17T04:29:23.573Z,1.80
2019-02-17T04:31:57.759Z,1.80
2019-02-17T04:34:28.246Z,1.90
2019-02-17T04:36:58.804Z,1.90
2019-02-17T04:39:29.553Z,1.80
2019-02-17T04:42:00.909Z,1.80
2019-02-17T04:44:31.962Z,1.80
2019-02-17T04:47:03.774Z,1.80
2019-02-17T04:49:35.510Z,1.60
2019-02-17T04:52:06.482Z,1.60
2019-02-17T04:54:37.543Z,1.60
2019-02-17T04:57:08.280Z,1.70
2019-02-17T04:59:39.244Z,1.60
2019-02-17T05:02:10.055Z,1.70
2019-02-17T05:04:40.903Z,1.60
2019-02-17T05:07:12.019Z,1.60
2019-02-17T05:09:43.789Z,1.60
2019-02-17T05:12:14.678Z,1.60
2019-02-17T05:14:45.859Z,1.50
2019-02-17T05:17:16.685Z,1.40
2019-02-17T05:19:47.941Z,1.40
2019-02-17T05:22:19.291Z,1.40
2019-02-17T05:24:50.623Z,1.40
2019-02-17T05:27:21.178Z,1.40
2019-02-17T05:29:51.943Z,1.40
2019-02-17T05:32:22.939Z,1.40
2019-02-17T05:34:53.823Z,1.40
2019-02-17T05:37:24.651Z,1.40
2019-02-17T05:39:57.501Z,1.40
2019-02-17T05:42:28.208Z,1.50
2019-02-17T05:44:58.777Z,1.50
2019-02-17T05:47:29.803Z,1.50
2019-02-17T05:50:02.145Z,1.40
2019-02-17T05:52:32.866Z,1.40
2019-02-17T05:55:04.139Z,1.30
2019-02-17T05:57:35.959Z,1.40
2019-02-17T06:00:08.245Z,1.40
2019-02-17T06:02:39.797Z,1.50
2019-02-17T06:05:11.365Z,1.50
2019-02-17T06:07:42.258Z,1.40
2019-02-17T06:10:12.927Z,1.40
2019-02-17T06:12:43.927Z,1.30
2019-02-17T06:15:14.737Z,1.40
2019-02-17T06:17:45.822Z,1.40
2019-02-17T06:20:16.657Z,1.50
2019-02-17T06:22:48.039Z,1.50
2019-02-17T06:25:19.475Z,1.60
2019-02-17T06:27:51.223Z,1.70
2019-02-17T06:30:23.502Z,1.80
2019-02-17T06:32:54.481Z,1.90
2019-02-17T06:35:25.838Z,2.00
2019-02-17T06:37:56.986Z,2.10
2019-02-17T06:40:27.927Z,2.10
2019-02-17T06:42:58.888Z,2.20
2019-02-17T06:45:29.753Z,2.30
2019-02-17T06:48:01.139Z,2.50
2019-02-17T06:50:32.942Z,2.70
2019-02-17T06:53:04.463Z,2.80
2019-02-17T06:55:43.838Z,3.00
2019-02-17T06:58:15.357Z,3.10
2019-02-17T07:00:49.274Z,3.30
2019-02-17T07:03:20.003Z,3.50
2019-02-17T07:06:10.143Z,4.00
2019-02-17T07:08:40.854Z,4.50
2019-02-17T07:11:16.921Z,5.10
2019-02-17T07:13:48.115Z,5.60
2019-02-17T07:16:20.453Z,6.20
2019-02-17T07:18:51.791Z,7.00
2019-02-17T07:21:23.985Z,7.70
2019-02-17T07:23:54.699Z,8.40
2019-02-17T07:26:25.624Z,9.10
2019-02-17T07:28:56.608Z,9.90
2019-02-17T07:31:34.656Z,10.50
2019-02-17T07:34:01.260Z,11.10
2019-02-17T07:36:31.873Z,11.80
2019-02-17T07:39:02.869Z,12.40
2019-02-17T07:41:34.594Z,13.00
2019-02-17T07:44:05.389Z,13.30
2019-02-17T07:46:36.343Z,13.70
2019-02-17T07:49:06.845Z,14.10
2019-02-17T07:51:40.706Z,14.60
2019-02-17T07:54:11.284Z,15.20
2019-02-17T07:56:43.079Z,15.80
2019-02-17T07:59:15.179Z,16.40
2019-02-17T08:01:45.827Z,16.90
2019-02-17T08:04:16.581Z,17.50
2019-02-17T08:06:47.841Z,17.80
2019-02-17T08:09:19.459Z,18.20
2019-02-17T08:11:51.727Z,18.50
2019-02-17T08:14:27.112Z,19.10
2019-02-17T08:16:57.864Z,19.70
2019-02-17T08:19:28.730Z,20.50
2019-02-17T08:21:59.431Z,20.80
2019-02-17T08:24:30.430Z,21.30
2019-02-17T08:27:04.664Z,21.20
2019-02-17T08:29:36.107Z,20.50
2019-02-17T08:32:06.796Z,20.50
2019-02-17T08:34:39.078Z,20.60
2019-02-17T08:37:10.246Z,20.40
2019-02-17T08:39:41.050Z,20.70
2019-02-17T08:42:11.874Z,21.50
2019-02-17T08:44:43.744Z,21.90
2019-02-17T08:47:17.839Z,22.10
2019-02-17T08:49:50.593Z,22.40
2019-02-17T08:52:21.267Z,22.70
2019-02-17T08:54:51.944Z,22.90
2019-02-17T08:57:23.364Z,23.50
2019-02-17T08:59:54.359Z,24.40
2019-02-17T09:02:25.464Z,25.10
2019-02-17T09:04:59.386Z,25.50
2019-02-17T09:07:30.108Z,26.10
2019-02-17T09:10:01.089Z,26.20
2019-02-17T09:12:32.079Z,26.70
2019-02-17T09:15:03.739Z,26.50
2019-02-17T09:17:34.850Z,26.80
2019-02-17T09:20:07.936Z,27.00
2019-02-17T09:22:39.199Z,26.80
2019-02-17T09:25:11.151Z,26.60
2019-02-17T09:27:42.198Z,26.10
2019-02-17T09:30:16.244Z,26.60
2019-02-17T09:32:49.111Z,26.50
2019-02-17T09:35:20.016Z,25.90
2019-02-17T09:37:50.776Z,25.30
2019-02-17T09:40:22.024Z,25.30
2019-02-17T09:42:54.462Z,26.10
2019-02-17T09:45:25.467Z,26.50
2019-02-17T09:47:56.684Z,26.30
2019-02-17T09:50:29.994Z,26.70
2019-02-17T09:53:02.272Z,27.00
2019-02-17T09:55:33.498Z,27.70
2019-02-17T09:58:04.438Z,27.40
2019-02-17T10:00:35.313Z,28.10
2019-02-17T10:03:06.472Z,28.00
2019-02-17T10:05:37.684Z,28.30
2019-02-17T10:08:09.272Z,28.10
2019-02-17T10:10:40.391Z,27.60
2019-02-17T10:13:11.133Z,26.50
2019-02-17T10:15:42.336Z,26.30
2019-02-17T10:18:13.864Z,26.00
2019-02-17T10:20:44.847Z,25.70
2019-02-17T10:23:15.596Z,25.50
2019-02-17T10:25:46.431Z,25.20
2019-02-17T10:28:17.314Z,24.60
2019-02-17T10:30:48.153Z,24.60
2019-02-17T10:33:19.363Z,24.80
2019-02-17T10:35:50.776Z,25.00
2019-02-17T10:38:21.596Z,25.30
2019-02-17T10:40:52.834Z,25.80
2019-02-17T10:43:23.733Z,25.90
2019-02-17T10:45:55.547Z,26.40
2019-02-17T10:48:26.220Z,27.00
2019-02-17T10:50:56.996Z,27.40
2019-02-17T10:53:28.871Z,27.70
2019-02-17T10:55:59.690Z,27.60
2019-02-17T10:58:30.486Z,28.00
2019-02-17T11:01:06.001Z,28.80
2019-02-17T11:03:36.887Z,29.80
2019-02-17T11:06:07.725Z,30.30
2019-02-17T11:08:38.489Z,30.30
2019-02-17T11:11:10.512Z,30.70
2019-02-17T11:13:41.245Z,30.80
2019-02-17T11:16:12.284Z,31.50
2019-02-17T11:18:43.283Z,31.80
2019-02-17T11:21:14.285Z,32.00
2019-02-17T11:23:45.231Z,32.40
2019-02-17T11:26:16.392Z,32.50
2019-02-17T11:28:47.265Z,32.90
2019-02-17T11:31:18.551Z,33.50
2019-02-17T11:33:49.136Z,33.40
2019-02-17T11:36:20.526Z,33.40
2019-02-17T11:38:52.345Z,33.20
2019-02-17T11:41:23.187Z,33.00
2019-02-17T11:43:53.830Z,32.00
2019-02-17T11:46:24.663Z,31.60
2019-02-17T11:48:55.503Z,31.20
2019-02-17T11:51:26.860Z,31.20
2019-02-17T11:53:57.554Z,32.00
2019-02-17T11:56:28.566Z,32.50
2019-02-17T11:58:59.701Z,33.00
2019-02-17T12:01:30.727Z,32.50
2019-02-17T12:04:01.756Z,32.60
2019-02-17T12:06:32.819Z,32.70
2019-02-17T12:09:03.824Z,32.60
2019-02-17T12:11:34.946Z,32.30
2019-02-17T12:14:06.866Z,31.80
2019-02-17T12:16:38.913Z,31.40
2019-02-17T12:19:11.351Z,31.90
2019-02-17T12:22:13.940Z,32.10
2019-02-17T12:25:10.320Z,32.60
2019-02-17T12:27:53.386Z,32.60
2019-02-17T12:30:25.622Z,32.90
2019-02-17T12:32:56.863Z,32.90
2019-02-17T12:35:27.621Z,32.40
2019-02-17T12:37:58.253Z,32.60
2019-02-17T12:40:30.041Z,32.60
2019-02-17T12:43:00.856Z,33.30
2019-02-17T12:45:31.668Z,33.80
2019-02-17T12:48:02.394Z,33.60
2019-02-17T12:50:33.138Z,32.40
2019-02-17T12:53:04.436Z,32.10
2019-02-17T12:55:36.389Z,32.40
2019-02-17T12:58:07.170Z,32.30
2019-02-17T13:00:37.961Z,32.30
2019-02-17T13:03:10.287Z,31.70
2019-02-17T13:05:41.640Z,31.30
2019-02-17T13:08:13.624Z,31.10
2019-02-17T13:10:45.268Z,30.90
2019-02-17T13:13:17.206Z,31.20
2019-02-17T13:15:48.359Z,31.60
2019-02-17T13:18:19.340Z,32.00
2019-02-17T13:20:50.037Z,31.50
2019-02-17T13:23:21.358Z,31.30
2019-02-17T13:25:52.507Z,31.60
2019-02-17T13:28:23.430Z,32.10
2019-02-17T13:30:54.623Z,32.20
2019-02-17T13:33:26.565Z,32.00
2019-02-17T13:35:57.351Z,32.20
2019-02-17T13:38:28.348Z,32.10
2019-02-17T13:40:59.064Z,32.20
2019-02-17T13:43:29.869Z,32.40
2019-02-17T13:46:00.550Z,31.90
2019-02-17T13:48:32.460Z,30.80
2019-02-17T13:51:03.558Z,31.10
2019-02-17T13:53:35.378Z,31.40
2019-02-17T13:56:06.371Z,31.60
2019-02-17T13:58:37.664Z,32.00
2019-02-17T14:01:10.595Z,31.60
2019-02-17T14:03:48.569Z,31.40
2019-02-17T14:06:15.547Z,31.10
2019-02-17T14:08:45.996Z,30.90
2019-02-17T14:11:17.564Z,30.60
2019-02-17T14:13:48.526Z,30.60
2019-02-17T14:16:19.549Z,30.40
2019-02-17T14:18:53.832Z,30.40
2019-02-17T14:21:24.958Z,30.40
2019-02-17T14:23:55.715Z,30.20
2019-02-17T14:26:26.569Z,30.00
2019-02-17T14:28:58.004Z,30.00
2019-02-17T14:31:28.739Z,29.70
2019-02-17T14:33:59.806Z,29.20
2019-02-17T14:36:30.990Z,28.90
2019-02-17T14:39:01.913Z,28.80
2019-02-17T14:41:33.225Z,28.90
2019-02-17T14:44:04.876Z,29.00
2019-02-17T14:46:35.959Z,28.30
2019-02-17T14:49:07.370Z,28.00
2019-02-17T14:51:38.650Z,27.80
2019-02-17T14:54:09.472Z,27.20
2019-02-17T14:56:40.953Z,26.80
2019-02-17T14:59:12.511Z,26.40
2019-02-17T15:01:43.902Z,25.40
2019-02-17T15:04:14.867Z,24.90
2019-02-17T15:06:46.521Z,24.80
2019-02-17T15:09:17.691Z,24.40
2019-02-17T15:11:48.500Z,23.90
2019-02-17T15:14:19.860Z,23.60
2019-02-17T15:16:52.043Z,23.60
2019-02-17T15:19:23.393Z,23.40
2019-02-17T15:21:54.111Z,23.30
2019-02-17T15:24:25.385Z,23.00
2019-02-17T15:26:56.297Z,22.40
2019-02-17T15:29:27.762Z,22.00
2019-02-17T15:31:59.559Z,21.80
2019-02-17T15:34:31.316Z,21.60
2019-02-17T15:37:03.231Z,21.50
2019-02-17T15:39:37.410Z,21.40
2019-02-17T15:42:09.041Z,21.20
2019-02-17T15:44:40.462Z,20.90
2019-02-17T15:47:11.329Z,20.70
2019-02-17T15:49:42.586Z,20.50
2019-02-17T15:52:13.924Z,20.20
2019-02-17T15:54:47.544Z,20.00
2019-02-17T15:57:18.593Z,19.60
2019-02-17T15:59:49.570Z,19.30
2019-02-17T16:02:21.012Z,19.00
2019-02-17T16:04:55.565Z,18.70
2019-02-17T16:07:26.601Z,18.40
2019-02-17T16:09:58.748Z,18.20
2019-02-17T16:12:30.275Z,18.10
2019-02-17T16:15:01.871Z,18.00
2019-02-17T16:17:33.632Z,17.60
2019-02-17T16:20:05.495Z,17.40
2019-02-17T16:22:38.063Z,17.30
2019-02-17T16:25:09.331Z,17.00
2019-02-17T16:27:40.539Z,16.80
2019-02-17T16:30:18.012Z,16.60
2019-02-17T16:32:49.873Z,16.50
2019-02-17T16:35:22.309Z,16.30
2019-02-17T16:37:54.041Z,16.00
2019-02-17T16:40:26.135Z,15.80
2019-02-17T16:42:58.743Z,15.60
2019-02-17T16:45:31.589Z,15.30
2019-02-17T16:48:03.031Z,15.20
2019-02-17T16:50:35.276Z,15.20
2019-02-17T16:53:08.596Z,15.10
2019-02-17T16:55:40.127Z,15.00
2019-02-17T16:58:12.195Z,14.90
2019-02-17T17:00:44.171Z,14.70
2019-02-17T17:03:16.347Z,14.50
2019-02-17T17:05:47.476Z,14.40
2019-02-17T17:08:20.181Z,14.30
2019-02-17T17:10:52.734Z,14.20
2019-02-17T17:13:24.660Z,14.00
2019-02-17T17:15:56.794Z,13.90
2019-02-17T17:18:29.520Z,13.50
2019-02-17T17:21:01.393Z,13.40
2019-02-17T17:23:33.306Z,13.20
2019-02-17T17:26:05.491Z,13.20
2019-02-17T17:28:36.831Z,13.20
2019-02-17T17:31:08.953Z,13.10
2019-02-17T17:33:40.873Z,13.00
2019-02-17T17:36:12.718Z,13.00
2019-02-17T17:38:46.917Z,12.90
2019-02-17T17:41:19.228Z,12.80
2019-02-17T17:43:51.425Z,12.70
2019-02-17T17:46:23.817Z,12.60
2019-02-17T17:48:56.267Z,12.30
2019-02-17T17:51:28.712Z,12.20
2019-02-17T17:54:00.837Z,12.00
2019-02-17T17:56:33.161Z,11.80
2019-02-17T17:59:05.093Z,11.60
2019-02-17T18:01:37.977Z,11.30
2019-02-17T18:04:09.795Z,11.30
2019-02-17T18:06:41.984Z,11.30
2019-02-17T18:09:14.049Z,11.10
2019-02-17T18:11:47.003Z,11.10
2019-02-17T18:14:20.425Z,11.10
2019-02-17T18:16:52.735Z,11.00
2019-02-17T18:19:25.091Z,11.00
2019-02-17T18:21:57.151Z,10.90
2019-02-17T18:24:29.631Z,10.80
2019-02-17T18:27:01.197Z,10.80
2019-02-17T18:29:33.115Z,10.70
2019-02-17T18:32:04.672Z,10.60
2019-02-17T18:34:36.896Z,10.50
2019-02-17T18:37:07.947Z,10.40
2019-02-17T18:39:39.604Z,10.30
2019-02-17T18:42:11.760Z,10.20
2019-02-17T18:44:43.377Z,10.10
2019-02-17T18:47:15.392Z,10.10
2019-02-17T18:49:48.816Z,9.90
2019-02-17T18:52:21.226Z,9.70
2019-02-17T18:54:53.119Z,9.70
2019-02-17T18:57:26.833Z,9.60
2019-02-17T18:59:58.937Z,9.60
2019-02-17T19:02:32.302Z,9.50
2019-02-17T19:05:04.186Z,9.50
2019-02-17T19:07:35.874Z,9.40
2019-02-17T19:10:08.823Z,9.40
2019-02-17T19:12:41.347Z,9.20
2019-02-17T19:15:14.959Z,9.20
2019-02-17T19:17:47.379Z,9.10
2019-02-17T19:20:21.503Z,9.20
2019-02-17T19:22:53.601Z,9.10
2019-02-17T19:25:24.989Z,9.00
2019-02-17T19:27:56.846Z,9.00
2019-02-17T19:30:29.066Z,9.00
2019-02-17T19:33:01.589Z,8.90
2019-02-17T19:35:41.599Z,8.80
2019-02-17T19:38:07.740Z,8.80
2019-02-17T19:40:39.554Z,8.70
2019-02-17T19:43:11.359Z,8.50
2019-02-17T19:45:42.954Z,8.40
2019-02-17T19:48:17.744Z,8.30
2019-02-17T19:50:50.639Z,8.10
2019-02-17T19:53:23.107Z,8.10
2019-02-17T19:55:56.356Z,8.10
2019-02-17T19:58:28.266Z,8.00
2019-02-17T20:01:00.506Z,8.00
2019-02-17T20:03:39.375Z,8.00
2019-02-17T20:06:11.800Z,7.90
2019-02-17T20:08:43.705Z,7.70
2019-02-17T20:11:24.482Z,7.70
2019-02-17T20:13:56.660Z,7.70
2019-02-17T20:16:30.845Z,7.60
2019-02-17T20:19:03.033Z,7.60
2019-02-17T20:21:34.796Z,7.60
2019-02-17T20:24:08.116Z,7.60
2019-02-17T20:26:41.664Z,7.60
2019-02-17T20:29:13.457Z,7.50
2019-02-17T20:31:47.086Z,7.40
2019-02-17T20:34:20.672Z,7.30
2019-02-17T20:36:55.221Z,7.20
2019-02-17T20:39:27.586Z,7.10
2019-02-17T20:41:59.695Z,7.10
2019-02-17T20:44:39.723Z,7.20
2019-02-17T20:47:11.671Z,7.20
2019-02-17T20:49:44.554Z,7.20
2019-02-17T20:52:47.069Z,7.10
2019-02-17T20:55:25.303Z,7.00
2019-02-17T20:58:05.850Z,6.90
2019-02-17T21:00:38.601Z,6.90
2019-02-17T21:03:20.171Z,6.90
2019-02-17T21:05:57.943Z,6.80
2019-02-17T21:08:34.991Z,6.80
2019-02-17T21:11:08.698Z,6.80
2019-02-17T21:13:41.263Z,6.80
2019-02-17T21:16:14.529Z,6.80
2019-02-17T21:18:50.187Z,6.70
2019-02-17T21:21:23.171Z,6.50
2019-02-17T21:23:55.998Z,6.40
2019-02-17T21:26:27.849Z,6.40
2019-02-17T21:28:58.705Z,6.40
2019-02-17T21:31:31.568Z,6.30
2019-02-17T21:34:03.745Z,6.30
2019-02-17T21:36:35.034Z,6.30
2019-02-17T21:39:07.386Z,6.30
2019-02-17T21:41:38.945Z,6.30
2019-02-17T21:44:10.676Z,6.20
2019-02-17T21:46:42.148Z,6.20
2019-02-17T21:49:13.637Z,6.10
2019-02-17T21:51:46.032Z,6.00
2019-02-17T21:54:17.348Z,5.90
2019-02-17T21:56:49.027Z,5.80
2019-02-17T21:59:20.110Z,5.80
2019-02-17T22:01:50.901Z,5.80
2019-02-17T22:04:22.230Z,5.70
2019-02-17T22:06:53.306Z,5.70
2019-02-17T22:09:24.362Z,5.60
2019-02-17T22:11:55.717Z,5.60
2019-02-17T22:14:27.065Z,5.50
2019-02-17T22:16:59.104Z,5.30
2019-02-17T22:19:29.798Z,5.30
2019-02-17T22:22:01.814Z,5.20
2019-02-17T22:24:33.661Z,5.40
2019-02-17T22:27:04.675Z,5.40
2019-02-17T22:29:35.718Z,5.40
2019-02-17T22:32:06.788Z,5.30
2019-02-17T22:34:41.577Z,5.30
2019-02-17T22:37:13.335Z,5.30
2019-02-17T22:39:44.156Z,5.30
2019-02-17T22:42:14.748Z,5.20
2019-02-17T22:44:45.619Z,5.20
2019-02-17T22:47:16.567Z,5.20
2019-02-17T22:49:47.637Z,5.20
2019-02-17T22:52:18.353Z,5.10
2019-02-17T22:54:49.074Z,5.00
2019-02-17T22:57:20.101Z,5.00
2019-02-17T22:59:51.105Z,5.00
2019-02-17T23:02:22.748Z,5.00
2019-02-17T23:04:53.666Z,5.00
2019-02-17T23:07:24.338Z,5.00
2019-02-17T23:09:55.025Z,5.00
2019-02-17T23:12:27.080Z,4.90
2019-02-17T23:14:58.381Z,4.90
2019-02-17T23:17:29.246Z,4.80
2019-02-17T23:20:00.268Z,4.80
2019-02-17T23:22:31.858Z,4.70
2019-02-17T23:25:03.222Z,4.70
2019-02-17T23:27:33.906Z,4.70
2019-02-17T23:30:04.685Z,4.70
2019-02-17T23:32:36.631Z,4.70
2019-02-17T23:35:09.755Z,4.50
2019-02-17T23:37:41.141Z,4.40
2019-02-17T23:40:11.976Z,4.20
2019-02-17T23:42:43.153Z,4.30
2019-02-17T23:45:15.041Z,4.20
2019-02-17T23:47:46.286Z,4.30
2019-02-17T23:50:17.567Z,4.20
2019-02-17T23:52:49.063Z,4.10
2019-02-17T23:55:19.943Z,4.00
2019-02-17T23:57:51.382Z,4.00
